sensor_id;sensor_type;location;lat;lon;timestamp;P1;durP1;ratioP1;P2;durP2;ratioP2
41705;SDS011;27385;51.096;17.190;2023-05-23T00:01:22;11.50;;;3.10;;
41705;SDS011;27385;51.096;17.190;2023-05-23T00:03:53;9.30;;;3.00;;
41705;SDS011;27385;51.096;17.190;2023-05-23T00:06:25;13.20;;;2.80;;
41705;SDS011;27385;51.096;17.190;2023-05-23T00:08:56;8.00;;;2.50;;
41705;SDS011;27385;51.096;17.190;2023-05-23T00:11:27;14.60;;;3.40;;
41705;SDS011;27385;51.096;17.190;2023-05-23T00:13:58;12.20;;;3.40;;
41705;SDS011;27385;51.096;17.190;2023-05-23T00:16:29;10.60;;;3.30;;
41705;SDS011;27385;51.096;17.190;2023-05-23T00:19:00;11.20;;;3.10;;
41705;SDS011;27385;51.096;17.190;2023-05-23T00:21:31;9.30;;;3.20;;
41705;SDS011;27385;51.096;17.190;2023-05-23T00:24:02;14.80;;;3.90;;
41705;SDS011;27385;51.096;17.190;2023-05-23T00:26:33;12.60;;;3.30;;
41705;SDS011;27385;51.096;17.190;2023-05-23T00:29:04;12.30;;;3.70;;
41705;SDS011;27385;51.096;17.190;2023-05-23T00:31:34;14.30;;;4.20;;
41705;SDS011;27385;51.096;17.190;2023-05-23T00:34:05;13.10;;;3.70;;
41705;SDS011;27385;51.096;17.190;2023-05-23T00:36:37;10.30;;;3.40;;
41705;SDS011;27385;51.096;17.190;2023-05-23T00:39:08;10.00;;;3.10;;
41705;SDS011;27385;51.096;17.190;2023-05-23T00:41:46;9.90;;;3.60;;
41705;SDS011;27385;51.096;17.190;2023-05-23T00:44:17;13.00;;;4.30;;
41705;SDS011;27385;51.096;17.190;2023-05-23T00:46:50;13.60;;;4.30;;
41705;SDS011;27385;51.096;17.190;2023-05-23T00:49:23;11.30;;;3.50;;
41705;SDS011;27385;51.096;17.190;2023-05-23T00:51:55;9.00;;;3.10;;
41705;SDS011;27385;51.096;17.190;2023-05-23T00:54:27;12.20;;;4.10;;
41705;SDS011;27385;51.096;17.190;2023-05-23T00:56:58;11.20;;;3.40;;
41705;SDS011;27385;51.096;17.190;2023-05-23T00:59:29;11.60;;;4.20;;
41705;SDS011;27385;51.096;17.190;2023-05-23T01:02:01;11.80;;;3.60;;
41705;SDS011;27385;51.096;17.190;2023-05-23T01:04:32;12.40;;;3.50;;
41705;SDS011;27385;51.096;17.190;2023-05-23T01:07:04;10.70;;;4.60;;
41705;SDS011;27385;51.096;17.190;2023-05-23T01:09:35;15.30;;;3.80;;
41705;SDS011;27385;51.096;17.190;2023-05-23T01:12:12;13.60;;;3.60;;
41705;SDS011;27385;51.096;17.190;2023-05-23T01:14:48;13.90;;;3.60;;
41705;SDS011;27385;51.096;17.190;2023-05-23T01:17:28;16.00;;;3.80;;
41705;SDS011;27385;51.096;17.190;2023-05-23T01:20:10;9.70;;;3.60;;
41705;SDS011;27385;51.096;17.190;2023-05-23T01:26:02;12.70;;;4.10;;
41705;SDS011;27385;51.096;17.190;2023-05-23T01:28:42;14.10;;;4.00;;
41705;SDS011;27385;51.096;17.190;2023-05-23T01:31:16;10.70;;;3.20;;
41705;SDS011;27385;51.096;17.190;2023-05-23T01:33:48;11.90;;;3.50;;
41705;SDS011;27385;51.096;17.190;2023-05-23T01:36:21;12.30;;;3.90;;
41705;SDS011;27385;51.096;17.190;2023-05-23T01:38:53;13.30;;;3.60;;
41705;SDS011;27385;51.096;17.190;2023-05-23T01:41:24;12.80;;;3.40;;
41705;SDS011;27385;51.096;17.190;2023-05-23T01:43:56;12.00;;;3.90;;
41705;SDS011;27385;51.096;17.190;2023-05-23T01:46:27;13.00;;;3.90;;
41705;SDS011;27385;51.096;17.190;2023-05-23T01:49:00;14.10;;;3.60;;
41705;SDS011;27385;51.096;17.190;2023-05-23T01:51:33;11.90;;;4.20;;
41705;SDS011;27385;51.096;17.190;2023-05-23T01:54:04;13.90;;;4.40;;
41705;SDS011;27385;51.096;17.190;2023-05-23T01:56:35;12.40;;;4.00;;
41705;SDS011;27385;51.096;17.190;2023-05-23T01:59:07;14.00;;;4.10;;
41705;SDS011;27385;51.096;17.190;2023-05-23T02:01:38;15.00;;;4.00;;
41705;SDS011;27385;51.096;17.190;2023-05-23T02:04:10;13.20;;;4.30;;
41705;SDS011;27385;51.096;17.190;2023-05-23T02:06:41;14.50;;;4.50;;
41705;SDS011;27385;51.096;17.190;2023-05-23T02:09:13;18.40;;;5.20;;
41705;SDS011;27385;51.096;17.190;2023-05-23T02:11:44;13.20;;;4.10;;
41705;SDS011;27385;51.096;17.190;2023-05-23T02:14:14;11.50;;;3.80;;
41705;SDS011;27385;51.096;17.190;2023-05-23T02:16:46;12.10;;;4.50;;
41705;SDS011;27385;51.096;17.190;2023-05-23T02:19:19;11.30;;;3.70;;
41705;SDS011;27385;51.096;17.190;2023-05-23T02:21:50;12.50;;;4.20;;
41705;SDS011;27385;51.096;17.190;2023-05-23T02:24:21;12.40;;;3.60;;
41705;SDS011;27385;51.096;17.190;2023-05-23T02:26:52;15.10;;;4.40;;
41705;SDS011;27385;51.096;17.190;2023-05-23T02:29:23;15.70;;;4.80;;
41705;SDS011;27385;51.096;17.190;2023-05-23T02:31:53;13.80;;;4.80;;
41705;SDS011;27385;51.096;17.190;2023-05-23T02:34:25;12.30;;;4.40;;
41705;SDS011;27385;51.096;17.190;2023-05-23T02:36:55;13.40;;;4.00;;
41705;SDS011;27385;51.096;17.190;2023-05-23T02:39:27;14.10;;;4.50;;
41705;SDS011;27385;51.096;17.190;2023-05-23T02:41:58;12.60;;;4.50;;
41705;SDS011;27385;51.096;17.190;2023-05-23T02:44:28;13.30;;;4.40;;
41705;SDS011;27385;51.096;17.190;2023-05-23T02:47:00;18.90;;;4.00;;
41705;SDS011;27385;51.096;17.190;2023-05-23T02:49:31;13.60;;;4.40;;
41705;SDS011;27385;51.096;17.190;2023-05-23T02:52:01;13.30;;;4.70;;
41705;SDS011;27385;51.096;17.190;2023-05-23T02:54:32;13.40;;;4.50;;
41705;SDS011;27385;51.096;17.190;2023-05-23T02:57:03;16.40;;;4.40;;
41705;SDS011;27385;51.096;17.190;2023-05-23T02:59:34;13.00;;;4.00;;
41705;SDS011;27385;51.096;17.190;2023-05-23T03:02:05;11.00;;;3.70;;
41705;SDS011;27385;51.096;17.190;2023-05-23T03:04:36;13.00;;;4.30;;
41705;SDS011;27385;51.096;17.190;2023-05-23T03:07:07;12.70;;;4.30;;
41705;SDS011;27385;51.096;17.190;2023-05-23T03:09:41;12.70;;;4.20;;
41705;SDS011;27385;51.096;17.190;2023-05-23T03:12:11;11.80;;;4.30;;
41705;SDS011;27385;51.096;17.190;2023-05-23T03:14:42;14.50;;;5.10;;
41705;SDS011;27385;51.096;17.190;2023-05-23T03:17:13;13.90;;;4.30;;
41705;SDS011;27385;51.096;17.190;2023-05-23T03:19:44;14.00;;;4.40;;
41705;SDS011;27385;51.096;17.190;2023-05-23T03:22:15;15.70;;;4.40;;
41705;SDS011;27385;51.096;17.190;2023-05-23T03:24:46;13.70;;;4.60;;
41705;SDS011;27385;51.096;17.190;2023-05-23T03:27:16;11.70;;;4.30;;
41705;SDS011;27385;51.096;17.190;2023-05-23T03:29:47;15.90;;;5.30;;
41705;SDS011;27385;51.096;17.190;2023-05-23T03:32:18;17.50;;;5.10;;
41705;SDS011;27385;51.096;17.190;2023-05-23T03:34:49;16.70;;;5.40;;
41705;SDS011;27385;51.096;17.190;2023-05-23T03:37:20;19.40;;;5.10;;
41705;SDS011;27385;51.096;17.190;2023-05-23T03:39:51;14.20;;;5.40;;
41705;SDS011;27385;51.096;17.190;2023-05-23T03:42:22;20.00;;;5.00;;
41705;SDS011;27385;51.096;17.190;2023-05-23T03:44:53;12.00;;;4.50;;
41705;SDS011;27385;51.096;17.190;2023-05-23T03:47:24;18.70;;;5.60;;
41705;SDS011;27385;51.096;17.190;2023-05-23T03:49:55;13.90;;;4.90;;
41705;SDS011;27385;51.096;17.190;2023-05-23T03:52:26;15.40;;;5.10;;
41705;SDS011;27385;51.096;17.190;2023-05-23T03:54:57;13.00;;;4.80;;
41705;SDS011;27385;51.096;17.190;2023-05-23T03:57:28;13.40;;;4.90;;
41705;SDS011;27385;51.096;17.190;2023-05-23T03:59:58;14.50;;;5.10;;
41705;SDS011;27385;51.096;17.190;2023-05-23T04:02:32;16.20;;;6.00;;
41705;SDS011;27385;51.096;17.190;2023-05-23T04:05:04;14.10;;;4.90;;
41705;SDS011;27385;51.096;17.190;2023-05-23T04:07:35;17.90;;;5.00;;
41705;SDS011;27385;51.096;17.190;2023-05-23T04:10:08;14.20;;;5.30;;
41705;SDS011;27385;51.096;17.190;2023-05-23T04:12:39;15.10;;;5.70;;
41705;SDS011;27385;51.096;17.190;2023-05-23T04:15:10;14.70;;;5.00;;
41705;SDS011;27385;51.096;17.190;2023-05-23T04:17:41;17.50;;;6.00;;
41705;SDS011;27385;51.096;17.190;2023-05-23T04:20:12;14.10;;;4.90;;
41705;SDS011;27385;51.096;17.190;2023-05-23T04:22:42;19.10;;;6.80;;
41705;SDS011;27385;51.096;17.190;2023-05-23T04:25:14;16.40;;;5.40;;
41705;SDS011;27385;51.096;17.190;2023-05-23T04:27:45;15.80;;;5.00;;
41705;SDS011;27385;51.096;17.190;2023-05-23T04:30:16;15.90;;;5.40;;
41705;SDS011;27385;51.096;17.190;2023-05-23T04:32:47;16.20;;;5.70;;
41705;SDS011;27385;51.096;17.190;2023-05-23T04:35:18;19.00;;;5.80;;
41705;SDS011;27385;51.096;17.190;2023-05-23T04:37:49;19.00;;;5.30;;
41705;SDS011;27385;51.096;17.190;2023-05-23T04:40:23;17.60;;;6.30;;
41705;SDS011;27385;51.096;17.190;2023-05-23T04:42:54;15.00;;;5.30;;
41705;SDS011;27385;51.096;17.190;2023-05-23T04:45:24;17.10;;;5.20;;
41705;SDS011;27385;51.096;17.190;2023-05-23T04:47:56;15.50;;;5.30;;
41705;SDS011;27385;51.096;17.190;2023-05-23T04:50:27;14.50;;;5.40;;
41705;SDS011;27385;51.096;17.190;2023-05-23T04:52:59;13.00;;;4.60;;
41705;SDS011;27385;51.096;17.190;2023-05-23T04:55:30;14.20;;;4.60;;
41705;SDS011;27385;51.096;17.190;2023-05-23T04:58:01;16.40;;;6.00;;
41705;SDS011;27385;51.096;17.190;2023-05-23T05:00:32;18.10;;;5.70;;
41705;SDS011;27385;51.096;17.190;2023-05-23T05:03:03;15.40;;;5.40;;
41705;SDS011;27385;51.096;17.190;2023-05-23T05:05:36;14.30;;;5.20;;
41705;SDS011;27385;51.096;17.190;2023-05-23T05:08:07;14.80;;;5.50;;
41705;SDS011;27385;51.096;17.190;2023-05-23T05:10:38;14.70;;;4.70;;
41705;SDS011;27385;51.096;17.190;2023-05-23T05:13:09;15.10;;;5.50;;
41705;SDS011;27385;51.096;17.190;2023-05-23T05:15:40;14.70;;;5.20;;
41705;SDS011;27385;51.096;17.190;2023-05-23T05:18:11;15.30;;;5.20;;
41705;SDS011;27385;51.096;17.190;2023-05-23T05:20:43;15.70;;;4.70;;
41705;SDS011;27385;51.096;17.190;2023-05-23T05:23:13;14.60;;;5.40;;
41705;SDS011;27385;51.096;17.190;2023-05-23T05:25:44;16.30;;;5.10;;
41705;SDS011;27385;51.096;17.190;2023-05-23T05:28:15;15.00;;;5.80;;
41705;SDS011;27385;51.096;17.190;2023-05-23T05:30:48;14.10;;;5.10;;
41705;SDS011;27385;51.096;17.190;2023-05-23T05:33:21;15.20;;;5.40;;
41705;SDS011;27385;51.096;17.190;2023-05-23T05:35:52;16.90;;;5.20;;
41705;SDS011;27385;51.096;17.190;2023-05-23T05:38:22;13.70;;;5.60;;
41705;SDS011;27385;51.096;17.190;2023-05-23T05:40:53;17.90;;;5.40;;
41705;SDS011;27385;51.096;17.190;2023-05-23T05:43:24;15.40;;;4.80;;
41705;SDS011;27385;51.096;17.190;2023-05-23T05:45:55;15.50;;;5.30;;
41705;SDS011;27385;51.096;17.190;2023-05-23T05:48:26;12.90;;;4.90;;
41705;SDS011;27385;51.096;17.190;2023-05-23T05:50:57;16.10;;;5.20;;
41705;SDS011;27385;51.096;17.190;2023-05-23T05:53:29;16.20;;;5.80;;
41705;SDS011;27385;51.096;17.190;2023-05-23T05:56:00;15.70;;;5.40;;
41705;SDS011;27385;51.096;17.190;2023-05-23T05:58:31;15.60;;;5.50;;
41705;SDS011;27385;51.096;17.190;2023-05-23T06:01:02;15.20;;;5.10;;
41705;SDS011;27385;51.096;17.190;2023-05-23T06:03:33;15.00;;;5.20;;
41705;SDS011;27385;51.096;17.190;2023-05-23T06:06:05;16.00;;;6.30;;
41705;SDS011;27385;51.096;17.190;2023-05-23T06:08:36;18.00;;;5.50;;
41705;SDS011;27385;51.096;17.190;2023-05-23T06:11:07;16.60;;;5.70;;
41705;SDS011;27385;51.096;17.190;2023-05-23T06:13:38;13.30;;;4.50;;
41705;SDS011;27385;51.096;17.190;2023-05-23T06:16:10;13.80;;;4.70;;
41705;SDS011;27385;51.096;17.190;2023-05-23T06:18:41;17.00;;;4.80;;
41705;SDS011;27385;51.096;17.190;2023-05-23T06:21:12;16.50;;;5.00;;
41705;SDS011;27385;51.096;17.190;2023-05-23T06:23:43;18.70;;;5.50;;
41705;SDS011;27385;51.096;17.190;2023-05-23T06:26:14;14.80;;;5.60;;
41705;SDS011;27385;51.096;17.190;2023-05-23T06:28:45;16.10;;;5.00;;
41705;SDS011;27385;51.096;17.190;2023-05-23T06:31:15;13.50;;;4.70;;
41705;SDS011;27385;51.096;17.190;2023-05-23T06:33:46;15.00;;;5.70;;
41705;SDS011;27385;51.096;17.190;2023-05-23T06:36:17;14.20;;;4.60;;
41705;SDS011;27385;51.096;17.190;2023-05-23T06:38:49;14.70;;;5.10;;
41705;SDS011;27385;51.096;17.190;2023-05-23T06:41:19;15.10;;;4.70;;
41705;SDS011;27385;51.096;17.190;2023-05-23T06:43:50;13.00;;;4.50;;
41705;SDS011;27385;51.096;17.190;2023-05-23T06:46:21;14.30;;;4.50;;
41705;SDS011;27385;51.096;17.190;2023-05-23T06:48:54;15.20;;;4.80;;
41705;SDS011;27385;51.096;17.190;2023-05-23T06:51:26;19.40;;;4.90;;
41705;SDS011;27385;51.096;17.190;2023-05-23T06:53:58;15.80;;;4.60;;
41705;SDS011;27385;51.096;17.190;2023-05-23T06:56:28;17.20;;;4.80;;
41705;SDS011;27385;51.096;17.190;2023-05-23T06:58:59;14.10;;;5.00;;
41705;SDS011;27385;51.096;17.190;2023-05-23T07:01:30;14.80;;;5.00;;
41705;SDS011;27385;51.096;17.190;2023-05-23T07:04:01;13.60;;;4.20;;
41705;SDS011;27385;51.096;17.190;2023-05-23T07:06:33;15.60;;;5.40;;
41705;SDS011;27385;51.096;17.190;2023-05-23T07:09:06;14.60;;;3.80;;
41705;SDS011;27385;51.096;17.190;2023-05-23T07:11:38;12.00;;;4.30;;
41705;SDS011;27385;51.096;17.190;2023-05-23T07:14:09;14.40;;;4.40;;
41705;SDS011;27385;51.096;17.190;2023-05-23T07:16:40;13.20;;;4.70;;
41705;SDS011;27385;51.096;17.190;2023-05-23T07:19:10;13.90;;;4.70;;
41705;SDS011;27385;51.096;17.190;2023-05-23T07:21:42;16.30;;;4.40;;
41705;SDS011;27385;51.096;17.190;2023-05-23T07:24:12;14.60;;;5.00;;
41705;SDS011;27385;51.096;17.190;2023-05-23T07:26:43;15.10;;;4.70;;
41705;SDS011;27385;51.096;17.190;2023-05-23T07:29:14;14.90;;;4.90;;
41705;SDS011;27385;51.096;17.190;2023-05-23T07:31:45;17.50;;;4.90;;
41705;SDS011;27385;51.096;17.190;2023-05-23T07:34:16;14.30;;;5.20;;
41705;SDS011;27385;51.096;17.190;2023-05-23T07:36:47;12.00;;;4.90;;
41705;SDS011;27385;51.096;17.190;2023-05-23T07:39:18;12.00;;;3.80;;
41705;SDS011;27385;51.096;17.190;2023-05-23T07:41:51;16.30;;;5.50;;
41705;SDS011;27385;51.096;17.190;2023-05-23T07:44:22;13.60;;;4.00;;
41705;SDS011;27385;51.096;17.190;2023-05-23T07:46:53;12.30;;;3.60;;
41705;SDS011;27385;51.096;17.190;2023-05-23T07:49:24;12.50;;;4.10;;
41705;SDS011;27385;51.096;17.190;2023-05-23T07:51:55;12.50;;;3.30;;
41705;SDS011;27385;51.096;17.190;2023-05-23T07:54:26;15.10;;;4.40;;
41705;SDS011;27385;51.096;17.190;2023-05-23T07:56:57;14.50;;;4.90;;
41705;SDS011;27385;51.096;17.190;2023-05-23T07:59:28;14.60;;;3.70;;
41705;SDS011;27385;51.096;17.190;2023-05-23T08:01:58;15.10;;;4.50;;
41705;SDS011;27385;51.096;17.190;2023-05-23T08:04:29;15.30;;;3.50;;
41705;SDS011;27385;51.096;17.190;2023-05-23T08:07:00;12.70;;;3.50;;
41705;SDS011;27385;51.096;17.190;2023-05-23T08:09:32;16.30;;;4.60;;
41705;SDS011;27385;51.096;17.190;2023-05-23T08:12:03;12.30;;;3.70;;
41705;SDS011;27385;51.096;17.190;2023-05-23T08:14:34;9.90;;;2.70;;
41705;SDS011;27385;51.096;17.190;2023-05-23T08:17:05;10.20;;;3.30;;
41705;SDS011;27385;51.096;17.190;2023-05-23T08:19:36;9.20;;;2.80;;
41705;SDS011;27385;51.096;17.190;2023-05-23T08:22:06;10.50;;;2.70;;
41705;SDS011;27385;51.096;17.190;2023-05-23T08:24:37;9.60;;;2.30;;
41705;SDS011;27385;51.096;17.190;2023-05-23T08:27:08;13.00;;;3.20;;
41705;SDS011;27385;51.096;17.190;2023-05-23T08:29:39;13.00;;;3.10;;
41705;SDS011;27385;51.096;17.190;2023-05-23T08:32:11;11.30;;;3.10;;
41705;SDS011;27385;51.096;17.190;2023-05-23T08:34:41;12.80;;;2.70;;
41705;SDS011;27385;51.096;17.190;2023-05-23T08:37:13;9.30;;;2.60;;
41705;SDS011;27385;51.096;17.190;2023-05-23T08:39:44;15.00;;;3.00;;
41705;SDS011;27385;51.096;17.190;2023-05-23T08:42:14;8.60;;;2.40;;
41705;SDS011;27385;51.096;17.190;2023-05-23T08:44:45;8.20;;;2.50;;
41705;SDS011;27385;51.096;17.190;2023-05-23T08:47:16;15.40;;;3.70;;
41705;SDS011;27385;51.096;17.190;2023-05-23T08:49:49;13.00;;;3.30;;
41705;SDS011;27385;51.096;17.190;2023-05-23T08:52:23;10.00;;;3.20;;
41705;SDS011;27385;51.096;17.190;2023-05-23T08:54:55;12.50;;;3.20;;
41705;SDS011;27385;51.096;17.190;2023-05-23T08:57:27;13.00;;;3.70;;
41705;SDS011;27385;51.096;17.190;2023-05-23T08:59:58;15.90;;;3.30;;
41705;SDS011;27385;51.096;17.190;2023-05-23T09:02:35;13.20;;;3.00;;
41705;SDS011;27385;51.096;17.190;2023-05-23T09:05:07;9.00;;;2.60;;
41705;SDS011;27385;51.096;17.190;2023-05-23T09:07:38;14.00;;;3.40;;
41705;SDS011;27385;51.096;17.190;2023-05-23T09:10:11;12.80;;;3.40;;
41705;SDS011;27385;51.096;17.190;2023-05-23T09:12:44;13.80;;;3.30;;
41705;SDS011;27385;51.096;17.190;2023-05-23T09:15:15;13.10;;;3.20;;
41705;SDS011;27385;51.096;17.190;2023-05-23T09:17:46;11.00;;;3.40;;
41705;SDS011;27385;51.096;17.190;2023-05-23T09:20:17;17.90;;;3.40;;
41705;SDS011;27385;51.096;17.190;2023-05-23T09:22:48;11.30;;;4.00;;
41705;SDS011;27385;51.096;17.190;2023-05-23T09:25:19;10.20;;;3.00;;
41705;SDS011;27385;51.096;17.190;2023-05-23T09:27:50;13.10;;;3.60;;
41705;SDS011;27385;51.096;17.190;2023-05-23T09:30:23;15.60;;;3.70;;
41705;SDS011;27385;51.096;17.190;2023-05-23T09:32:58;10.70;;;3.50;;
41705;SDS011;27385;51.096;17.190;2023-05-23T09:35:29;10.60;;;3.10;;
41705;SDS011;27385;51.096;17.190;2023-05-23T09:38:00;12.10;;;4.30;;
41705;SDS011;27385;51.096;17.190;2023-05-23T09:40:31;12.30;;;4.30;;
41705;SDS011;27385;51.096;17.190;2023-05-23T09:43:02;14.40;;;4.00;;
41705;SDS011;27385;51.096;17.190;2023-05-23T09:45:34;11.70;;;3.60;;
41705;SDS011;27385;51.096;17.190;2023-05-23T09:48:06;15.10;;;4.00;;
41705;SDS011;27385;51.096;17.190;2023-05-23T09:50:41;13.50;;;5.00;;
41705;SDS011;27385;51.096;17.190;2023-05-23T09:53:18;14.90;;;4.80;;
41705;SDS011;27385;51.096;17.190;2023-05-23T09:55:50;15.50;;;5.90;;
41705;SDS011;27385;51.096;17.190;2023-05-23T09:58:22;17.10;;;5.90;;
41705;SDS011;27385;51.096;17.190;2023-05-23T10:00:55;15.10;;;5.50;;
41705;SDS011;27385;51.096;17.190;2023-05-23T10:03:32;16.70;;;6.60;;
41705;SDS011;27385;51.096;17.190;2023-05-23T10:06:09;18.40;;;6.50;;
41705;SDS011;27385;51.096;17.190;2023-05-23T10:08:47;16.20;;;6.70;;
41705;SDS011;27385;51.096;17.190;2023-05-23T10:14:24;18.70;;;6.60;;
41705;SDS011;27385;51.096;17.190;2023-05-23T10:17:00;19.80;;;7.90;;
41705;SDS011;27385;51.096;17.190;2023-05-23T10:19:37;18.70;;;5.90;;
41705;SDS011;27385;51.096;17.190;2023-05-23T10:22:12;19.60;;;7.40;;
41705;SDS011;27385;51.096;17.190;2023-05-23T10:24:45;20.20;;;7.40;;
41705;SDS011;27385;51.096;17.190;2023-05-23T10:27:16;17.90;;;7.50;;
41705;SDS011;27385;51.096;17.190;2023-05-23T10:29:47;21.90;;;8.30;;
41705;SDS011;27385;51.096;17.190;2023-05-23T10:32:19;18.60;;;7.50;;
41705;SDS011;27385;51.096;17.190;2023-05-23T10:34:54;19.50;;;8.10;;
41705;SDS011;27385;51.096;17.190;2023-05-23T10:37:32;22.10;;;8.00;;
41705;SDS011;27385;51.096;17.190;2023-05-23T10:40:12;21.10;;;8.80;;
41705;SDS011;27385;51.096;17.190;2023-05-23T10:42:51;20.20;;;8.10;;
41705;SDS011;27385;51.096;17.190;2023-05-23T10:45:24;22.30;;;8.80;;
41705;SDS011;27385;51.096;17.190;2023-05-23T10:47:57;23.00;;;9.70;;
41705;SDS011;27385;51.096;17.190;2023-05-23T10:50:31;21.60;;;9.50;;
41705;SDS011;27385;51.096;17.190;2023-05-23T10:53:04;20.30;;;8.90;;
41705;SDS011;27385;51.096;17.190;2023-05-23T10:55:38;21.90;;;9.00;;
41705;SDS011;27385;51.096;17.190;2023-05-23T10:58:09;20.90;;;9.60;;
41705;SDS011;27385;51.096;17.190;2023-05-23T11:00:51;20.70;;;10.30;;
41705;SDS011;27385;51.096;17.190;2023-05-23T11:03:32;19.70;;;9.90;;
41705;SDS011;27385;51.096;17.190;2023-05-23T11:06:05;22.10;;;10.90;;
41705;SDS011;27385;51.096;17.190;2023-05-23T11:09:02;18.70;;;9.10;;
41705;SDS011;27385;51.096;17.190;2023-05-23T11:11:51;20.00;;;7.70;;
41705;SDS011;27385;51.096;17.190;2023-05-23T11:14:32;17.60;;;7.60;;
41705;SDS011;27385;51.096;17.190;2023-05-23T11:17:28;19.50;;;7.30;;
41705;SDS011;27385;51.096;17.190;2023-05-23T11:20:01;14.80;;;6.70;;
41705;SDS011;27385;51.096;17.190;2023-05-23T11:22:34;18.70;;;6.90;;
41705;SDS011;27385;51.096;17.190;2023-05-23T11:25:07;16.10;;;6.30;;
41705;SDS011;27385;51.096;17.190;2023-05-23T11:27:39;15.40;;;5.90;;
41705;SDS011;27385;51.096;17.190;2023-05-23T11:30:14;18.40;;;7.30;;
41705;SDS011;27385;51.096;17.190;2023-05-23T11:32:50;16.70;;;5.60;;
41705;SDS011;27385;51.096;17.190;2023-05-23T11:35:22;15.80;;;5.70;;
41705;SDS011;27385;51.096;17.190;2023-05-23T11:37:54;14.20;;;5.30;;
41705;SDS011;27385;51.096;17.190;2023-05-23T11:40:27;15.00;;;5.50;;
41705;SDS011;27385;51.096;17.190;2023-05-23T11:43:00;14.90;;;5.20;;
41705;SDS011;27385;51.096;17.190;2023-05-23T11:45:33;16.00;;;6.50;;
41705;SDS011;27385;51.096;17.190;2023-05-23T11:48:05;15.30;;;6.90;;
41705;SDS011;27385;51.096;17.190;2023-05-23T11:50:45;13.70;;;5.50;;
41705;SDS011;27385;51.096;17.190;2023-05-23T11:53:18;13.90;;;5.20;;
41705;SDS011;27385;51.096;17.190;2023-05-23T11:55:52;13.00;;;5.00;;
41705;SDS011;27385;51.096;17.190;2023-05-23T11:58:27;16.10;;;5.60;;
41705;SDS011;27385;51.096;17.190;2023-05-23T12:00:59;16.60;;;5.90;;
41705;SDS011;27385;51.096;17.190;2023-05-23T12:03:33;13.40;;;4.60;;
41705;SDS011;27385;51.096;17.190;2023-05-23T12:06:15;14.80;;;5.50;;
41705;SDS011;27385;51.096;17.190;2023-05-23T12:08:47;13.90;;;4.70;;
41705;SDS011;27385;51.096;17.190;2023-05-23T12:11:19;13.40;;;5.00;;
41705;SDS011;27385;51.096;17.190;2023-05-23T12:13:53;11.80;;;4.40;;
41705;SDS011;27385;51.096;17.190;2023-05-23T12:16:24;11.00;;;3.70;;
41705;SDS011;27385;51.096;17.190;2023-05-23T12:18:56;13.50;;;4.20;;
41705;SDS011;27385;51.096;17.190;2023-05-23T12:21:40;17.20;;;4.90;;
41705;SDS011;27385;51.096;17.190;2023-05-23T12:24:15;10.80;;;4.10;;
41705;SDS011;27385;51.096;17.190;2023-05-23T12:26:59;13.30;;;3.60;;
41705;SDS011;27385;51.096;17.190;2023-05-23T12:29:32;12.10;;;4.20;;
41705;SDS011;27385;51.096;17.190;2023-05-23T12:32:07;9.30;;;3.20;;
41705;SDS011;27385;51.096;17.190;2023-05-23T12:34:41;10.30;;;3.60;;
41705;SDS011;27385;51.096;17.190;2023-05-23T12:37:13;9.50;;;3.70;;
41705;SDS011;27385;51.096;17.190;2023-05-23T12:39:45;11.60;;;4.30;;
41705;SDS011;27385;51.096;17.190;2023-05-23T12:42:17;12.30;;;4.00;;
41705;SDS011;27385;51.096;17.190;2023-05-23T12:44:50;11.50;;;3.60;;
41705;SDS011;27385;51.096;17.190;2023-05-23T12:47:22;11.30;;;4.20;;
41705;SDS011;27385;51.096;17.190;2023-05-23T12:49:55;12.00;;;3.80;;
41705;SDS011;27385;51.096;17.190;2023-05-23T12:52:26;13.80;;;4.00;;
41705;SDS011;27385;51.096;17.190;2023-05-23T12:54:58;12.80;;;4.40;;
41705;SDS011;27385;51.096;17.190;2023-05-23T12:57:29;11.30;;;3.90;;
41705;SDS011;27385;51.096;17.190;2023-05-23T13:00:03;11.10;;;3.10;;
41705;SDS011;27385;51.096;17.190;2023-05-23T13:02:39;10.60;;;3.90;;
41705;SDS011;27385;51.096;17.190;2023-05-23T13:05:10;11.90;;;4.40;;
41705;SDS011;27385;51.096;17.190;2023-05-23T13:07:41;13.30;;;4.60;;
41705;SDS011;27385;51.096;17.190;2023-05-23T13:10:12;11.00;;;4.10;;
41705;SDS011;27385;51.096;17.190;2023-05-23T13:12:43;14.50;;;4.30;;
41705;SDS011;27385;51.096;17.190;2023-05-23T13:15:14;13.40;;;4.60;;
41705;SDS011;27385;51.096;17.190;2023-05-23T13:17:45;16.10;;;4.90;;
41705;SDS011;27385;51.096;17.190;2023-05-23T13:20:16;11.30;;;4.20;;
41705;SDS011;27385;51.096;17.190;2023-05-23T13:22:47;11.90;;;4.00;;
41705;SDS011;27385;51.096;17.190;2023-05-23T13:25:18;11.40;;;4.00;;
41705;SDS011;27385;51.096;17.190;2023-05-23T13:27:51;13.50;;;4.10;;
41705;SDS011;27385;51.096;17.190;2023-05-23T13:30:23;10.80;;;3.40;;
41705;SDS011;27385;51.096;17.190;2023-05-23T13:32:54;12.00;;;4.30;;
41705;SDS011;27385;51.096;17.190;2023-05-23T13:35:25;14.70;;;4.30;;
41705;SDS011;27385;51.096;17.190;2023-05-23T13:37:56;11.70;;;3.80;;
41705;SDS011;27385;51.096;17.190;2023-05-23T13:40:27;13.70;;;4.90;;
41705;SDS011;27385;51.096;17.190;2023-05-23T13:42:58;12.00;;;4.50;;
41705;SDS011;27385;51.096;17.190;2023-05-23T13:45:29;12.40;;;4.90;;
41705;SDS011;27385;51.096;17.190;2023-05-23T13:48:00;17.20;;;5.20;;
41705;SDS011;27385;51.096;17.190;2023-05-23T13:50:32;12.50;;;5.00;;
41705;SDS011;27385;51.096;17.190;2023-05-23T13:53:03;15.10;;;5.10;;
41705;SDS011;27385;51.096;17.190;2023-05-23T13:55:41;12.80;;;4.60;;
41705;SDS011;27385;51.096;17.190;2023-05-23T13:58:13;10.40;;;4.20;;
41705;SDS011;27385;51.096;17.190;2023-05-23T14:00:44;12.50;;;4.30;;
41705;SDS011;27385;51.096;17.190;2023-05-23T14:03:15;15.70;;;3.90;;
41705;SDS011;27385;51.096;17.190;2023-05-23T14:05:46;11.80;;;3.90;;
41705;SDS011;27385;51.096;17.190;2023-05-23T14:08:17;13.30;;;4.30;;
41705;SDS011;27385;51.096;17.190;2023-05-23T14:10:48;13.00;;;4.40;;
41705;SDS011;27385;51.096;17.190;2023-05-23T14:13:20;13.50;;;4.30;;
41705;SDS011;27385;51.096;17.190;2023-05-23T14:15:51;12.60;;;4.40;;
41705;SDS011;27385;51.096;17.190;2023-05-23T14:18:22;16.80;;;4.80;;
41705;SDS011;27385;51.096;17.190;2023-05-23T14:20:53;12.80;;;4.40;;
41705;SDS011;27385;51.096;17.190;2023-05-23T14:23:24;12.90;;;5.10;;
41705;SDS011;27385;51.096;17.190;2023-05-23T14:25:55;17.30;;;6.10;;
41705;SDS011;27385;51.096;17.190;2023-05-23T14:28:26;13.90;;;5.10;;
41705;SDS011;27385;51.096;17.190;2023-05-23T14:30:57;14.20;;;4.60;;
41705;SDS011;27385;51.096;17.190;2023-05-23T14:33:28;13.90;;;4.90;;
41705;SDS011;27385;51.096;17.190;2023-05-23T14:36:00;14.20;;;5.50;;
41705;SDS011;27385;51.096;17.190;2023-05-23T14:38:30;17.20;;;4.90;;
41705;SDS011;27385;51.096;17.190;2023-05-23T14:41:01;12.80;;;3.90;;
41705;SDS011;27385;51.096;17.190;2023-05-23T14:43:32;13.70;;;4.70;;
41705;SDS011;27385;51.096;17.190;2023-05-23T14:46:03;14.20;;;5.20;;
41705;SDS011;27385;51.096;17.190;2023-05-23T14:48:34;13.50;;;5.40;;
41705;SDS011;27385;51.096;17.190;2023-05-23T14:51:05;12.10;;;4.90;;
41705;SDS011;27385;51.096;17.190;2023-05-23T14:53:36;15.50;;;5.10;;
41705;SDS011;27385;51.096;17.190;2023-05-23T14:56:07;13.80;;;5.20;;